sensor_id;sensor_type;location;lat;lon;timestamp;P1;durP1;ratioP1;P2;durP2;ratioP2
77573;SDS011;66710;48.868;9.080;2023-05-07T00:00:00;8.73;;;5.63;;
77573;SDS011;66710;48.868;9.080;2023-05-07T00:02:26;9.55;;;5.60;;
77573;SDS011;66710;48.868;9.080;2023-05-07T00:04:51;7.82;;;5.35;;
77573;SDS011;66710;48.868;9.080;2023-05-07T00:07:16;11.27;;;5.80;;
77573;SDS011;66710;48.868;9.080;2023-05-07T00:09:42;7.32;;;5.25;;
77573;SDS011;66710;48.868;9.080;2023-05-07T00:12:08;10.27;;;5.82;;
77573;SDS011;66710;48.868;9.080;2023-05-07T00:14:33;9.05;;;5.72;;
77573;SDS011;66710;48.868;9.080;2023-05-07T00:16:58;7.80;;;5.22;;
77573;SDS011;66710;48.868;9.080;2023-05-07T00:19:23;8.38;;;5.18;;
77573;SDS011;66710;48.868;9.080;2023-05-07T00:21:49;7.90;;;5.10;;
77573;SDS011;66710;48.868;9.080;2023-05-07T00:24:14;8.50;;;5.55;;
77573;SDS011;66710;48.868;9.080;2023-05-07T00:26:40;9.23;;;5.70;;
77573;SDS011;66710;48.868;9.080;2023-05-07T00:29:05;8.07;;;5.50;;
77573;SDS011;66710;48.868;9.080;2023-05-07T00:31:30;8.85;;;5.65;;
77573;SDS011;66710;48.868;9.080;2023-05-07T00:33:55;8.18;;;5.72;;
77573;SDS011;66710;48.868;9.080;2023-05-07T00:36:21;8.68;;;5.72;;
77573;SDS011;66710;48.868;9.080;2023-05-07T00:38:46;10.23;;;5.93;;
77573;SDS011;66710;48.868;9.080;2023-05-07T00:41:11;9.10;;;5.63;;
77573;SDS011;66710;48.868;9.080;2023-05-07T00:43:37;7.90;;;5.10;;
77573;SDS011;66710;48.868;9.080;2023-05-07T00:46:02;8.27;;;5.63;;
77573;SDS011;66710;48.868;9.080;2023-05-07T00:48:28;9.70;;;5.32;;
77573;SDS011;66710;48.868;9.080;2023-05-07T00:50:53;7.97;;;5.15;;
77573;SDS011;66710;48.868;9.080;2023-05-07T00:53:19;8.63;;;5.18;;
77573;SDS011;66710;48.868;9.080;2023-05-07T00:55:45;8.27;;;5.43;;
77573;SDS011;66710;48.868;9.080;2023-05-07T00:58:11;8.65;;;5.40;;
77573;SDS011;66710;48.868;9.080;2023-05-07T01:00:36;10.38;;;5.82;;
77573;SDS011;66710;48.868;9.080;2023-05-07T01:03:01;9.32;;;5.85;;
77573;SDS011;66710;48.868;9.080;2023-05-07T01:05:27;7.75;;;5.60;;
77573;SDS011;66710;48.868;9.080;2023-05-07T01:07:54;7.25;;;5.65;;
77573;SDS011;66710;48.868;9.080;2023-05-07T01:10:20;10.45;;;5.80;;
77573;SDS011;66710;48.868;9.080;2023-05-07T01:12:46;9.32;;;6.63;;
77573;SDS011;66710;48.868;9.080;2023-05-07T01:15:13;8.15;;;5.72;;
77573;SDS011;66710;48.868;9.080;2023-05-07T01:17:39;9.27;;;5.72;;
77573;SDS011;66710;48.868;9.080;2023-05-07T01:20:06;7.97;;;5.30;;
77573;SDS011;66710;48.868;9.080;2023-05-07T01:22:33;8.68;;;5.63;;
77573;SDS011;66710;48.868;9.080;2023-05-07T01:25:03;9.15;;;5.70;;
77573;SDS011;66710;48.868;9.080;2023-05-07T01:27:29;8.23;;;5.18;;
77573;SDS011;66710;48.868;9.080;2023-05-07T01:29:54;10.70;;;5.95;;
77573;SDS011;66710;48.868;9.080;2023-05-07T01:32:27;8.40;;;5.75;;
77573;SDS011;66710;48.868;9.080;2023-05-07T01:34:57;9.20;;;5.75;;
77573;SDS011;66710;48.868;9.080;2023-05-07T01:37:25;8.57;;;5.95;;
77573;SDS011;66710;48.868;9.080;2023-05-07T01:39:50;7.35;;;5.32;;
77573;SDS011;66710;48.868;9.080;2023-05-07T01:42:17;9.18;;;5.70;;
77573;SDS011;66710;48.868;9.080;2023-05-07T01:44:42;8.95;;;5.55;;
77573;SDS011;66710;48.868;9.080;2023-05-07T01:47:08;8.10;;;5.68;;
77573;SDS011;66710;48.868;9.080;2023-05-07T01:49:34;9.77;;;5.90;;
77573;SDS011;66710;48.868;9.080;2023-05-07T01:51:59;8.55;;;5.25;;
77573;SDS011;66710;48.868;9.080;2023-05-07T01:54:25;9.13;;;5.45;;
77573;SDS011;66710;48.868;9.080;2023-05-07T01:56:56;11.88;;;6.22;;
77573;SDS011;66710;48.868;9.080;2023-05-07T01:59:22;11.65;;;5.80;;
77573;SDS011;66710;48.868;9.080;2023-05-07T02:01:47;8.07;;;5.28;;
77573;SDS011;66710;48.868;9.080;2023-05-07T02:04:12;8.27;;;5.43;;
77573;SDS011;66710;48.868;9.080;2023-05-07T02:06:38;9.02;;;5.60;;
77573;SDS011;66710;48.868;9.080;2023-05-07T02:09:03;8.43;;;5.75;;
77573;SDS011;66710;48.868;9.080;2023-05-07T02:11:28;8.52;;;5.43;;
77573;SDS011;66710;48.868;9.080;2023-05-07T02:13:53;9.43;;;5.60;;
77573;SDS011;66710;48.868;9.080;2023-05-07T02:16:19;8.70;;;5.72;;
77573;SDS011;66710;48.868;9.080;2023-05-07T02:18:45;8.45;;;5.50;;
77573;SDS011;66710;48.868;9.080;2023-05-07T02:21:10;9.23;;;5.80;;
77573;SDS011;66710;48.868;9.080;2023-05-07T02:23:35;8.20;;;5.30;;
77573;SDS011;66710;48.868;9.080;2023-05-07T02:26:00;8.73;;;5.93;;
77573;SDS011;66710;48.868;9.080;2023-05-07T02:28:26;8.55;;;5.63;;
77573;SDS011;66710;48.868;9.080;2023-05-07T02:30:52;9.07;;;5.68;;
77573;SDS011;66710;48.868;9.080;2023-05-07T02:33:17;8.57;;;5.45;;
77573;SDS011;66710;48.868;9.080;2023-05-07T02:35:42;8.63;;;5.20;;
77573;SDS011;66710;48.868;9.080;2023-05-07T02:38:08;7.55;;;5.45;;
77573;SDS011;66710;48.868;9.080;2023-05-07T02:40:35;8.05;;;5.40;;
77573;SDS011;66710;48.868;9.080;2023-05-07T02:43:03;7.80;;;5.60;;
77573;SDS011;66710;48.868;9.080;2023-05-07T02:45:29;8.27;;;5.65;;
77573;SDS011;66710;48.868;9.080;2023-05-07T02:47:54;11.52;;;6.20;;
77573;SDS011;66710;48.868;9.080;2023-05-07T02:50:20;8.65;;;5.80;;
77573;SDS011;66710;48.868;9.080;2023-05-07T02:52:45;8.48;;;5.38;;
77573;SDS011;66710;48.868;9.080;2023-05-07T02:55:10;7.88;;;5.70;;
77573;SDS011;66710;48.868;9.080;2023-05-07T02:57:36;9.68;;;5.32;;
77573;SDS011;66710;48.868;9.080;2023-05-07T03:00:09;7.53;;;5.10;;
77573;SDS011;66710;48.868;9.080;2023-05-07T03:02:36;8.80;;;5.40;;
77573;SDS011;66710;48.868;9.080;2023-05-07T03:05:01;7.75;;;5.70;;
77573;SDS011;66710;48.868;9.080;2023-05-07T03:07:28;9.63;;;5.68;;
77573;SDS011;66710;48.868;9.080;2023-05-07T03:09:53;9.30;;;5.80;;
77573;SDS011;66710;48.868;9.080;2023-05-07T03:12:18;8.50;;;5.32;;
77573;SDS011;66710;48.868;9.080;2023-05-07T03:14:44;11.32;;;6.13;;
77573;SDS011;66710;48.868;9.080;2023-05-07T03:17:09;8.50;;;5.60;;
77573;SDS011;66710;48.868;9.080;2023-05-07T03:19:34;8.23;;;5.72;;
77573;SDS011;66710;48.868;9.080;2023-05-07T03:22:00;9.80;;;5.50;;
77573;SDS011;66710;48.868;9.080;2023-05-07T03:24:25;7.22;;;5.35;;
77573;SDS011;66710;48.868;9.080;2023-05-07T03:26:50;7.95;;;5.60;;
77573;SDS011;66710;48.868;9.080;2023-05-07T03:29:16;8.38;;;5.78;;
77573;SDS011;66710;48.868;9.080;2023-05-07T03:31:41;7.45;;;5.47;;
77573;SDS011;66710;48.868;9.080;2023-05-07T03:34:06;7.75;;;5.13;;
77573;SDS011;66710;48.868;9.080;2023-05-07T03:36:31;9.55;;;5.57;;
77573;SDS011;66710;48.868;9.080;2023-05-07T03:38:57;7.90;;;5.75;;
77573;SDS011;66710;48.868;9.080;2023-05-07T03:41:22;8.27;;;5.50;;
77573;SDS011;66710;48.868;9.080;2023-05-07T03:43:47;8.52;;;6.07;;
77573;SDS011;66710;48.868;9.080;2023-05-07T03:46:13;8.25;;;5.60;;
77573;SDS011;66710;48.868;9.080;2023-05-07T03:48:38;7.13;;;5.55;;
77573;SDS011;66710;48.868;9.080;2023-05-07T03:51:03;8.43;;;5.68;;
77573;SDS011;66710;48.868;9.080;2023-05-07T03:53:28;8.48;;;6.00;;
77573;SDS011;66710;48.868;9.080;2023-05-07T03:55:57;8.10;;;5.55;;
77573;SDS011;66710;48.868;9.080;2023-05-07T03:58:22;10.35;;;5.85;;
77573;SDS011;66710;48.868;9.080;2023-05-07T04:00:47;8.13;;;5.65;;
77573;SDS011;66710;48.868;9.080;2023-05-07T04:03:13;9.10;;;5.57;;
77573;SDS011;66710;48.868;9.080;2023-05-07T04:05:38;7.78;;;5.78;;
77573;SDS011;66710;48.868;9.080;2023-05-07T04:08:04;8.90;;;5.65;;
77573;SDS011;66710;48.868;9.080;2023-05-07T04:10:30;8.95;;;5.80;;
77573;SDS011;66710;48.868;9.080;2023-05-07T04:12:55;9.02;;;6.22;;
77573;SDS011;66710;48.868;9.080;2023-05-07T04:15:21;9.25;;;5.20;;
77573;SDS011;66710;48.868;9.080;2023-05-07T04:17:47;7.53;;;5.10;;
77573;SDS011;66710;48.868;9.080;2023-05-07T04:20:14;9.48;;;5.68;;
77573;SDS011;66710;48.868;9.080;2023-05-07T04:22:41;8.43;;;5.25;;
77573;SDS011;66710;48.868;9.080;2023-05-07T04:25:07;9.15;;;5.47;;
77573;SDS011;66710;48.868;9.080;2023-05-07T04:27:34;9.25;;;5.53;;
77573;SDS011;66710;48.868;9.080;2023-05-07T04:29:59;7.70;;;5.35;;
77573;SDS011;66710;48.868;9.080;2023-05-07T04:32:25;8.32;;;5.63;;
77573;SDS011;66710;48.868;9.080;2023-05-07T04:34:51;8.07;;;5.55;;
77573;SDS011;66710;48.868;9.080;2023-05-07T04:37:16;9.15;;;5.68;;
77573;SDS011;66710;48.868;9.080;2023-05-07T04:39:41;8.35;;;5.50;;
77573;SDS011;66710;48.868;9.080;2023-05-07T04:42:07;8.45;;;5.40;;
77573;SDS011;66710;48.868;9.080;2023-05-07T04:44:36;8.68;;;5.50;;
77573;SDS011;66710;48.868;9.080;2023-05-07T04:47:02;8.70;;;5.78;;
77573;SDS011;66710;48.868;9.080;2023-05-07T04:49:27;8.65;;;5.40;;
77573;SDS011;66710;48.868;9.080;2023-05-07T04:51:53;7.72;;;5.43;;
77573;SDS011;66710;48.868;9.080;2023-05-07T04:54:18;9.65;;;5.57;;
77573;SDS011;66710;48.868;9.080;2023-05-07T04:56:43;7.60;;;5.38;;
77573;SDS011;66710;48.868;9.080;2023-05-07T04:59:09;9.35;;;5.70;;
77573;SDS011;66710;48.868;9.080;2023-05-07T05:01:34;8.25;;;5.53;;
77573;SDS011;66710;48.868;9.080;2023-05-07T05:04:00;8.77;;;5.40;;
77573;SDS011;66710;48.868;9.080;2023-05-07T05:06:25;8.95;;;5.40;;
77573;SDS011;66710;48.868;9.080;2023-05-07T05:08:51;8.35;;;5.50;;
77573;SDS011;66710;48.868;9.080;2023-05-07T05:11:16;8.57;;;5.60;;
77573;SDS011;66710;48.868;9.080;2023-05-07T05:13:41;8.70;;;5.90;;
77573;SDS011;66710;48.868;9.080;2023-05-07T05:16:07;8.00;;;5.10;;
77573;SDS011;66710;48.868;9.080;2023-05-07T05:18:32;9.60;;;5.40;;
77573;SDS011;66710;48.868;9.080;2023-05-07T05:20:58;8.00;;;5.40;;
77573;SDS011;66710;48.868;9.080;2023-05-07T05:23:23;8.65;;;5.30;;
77573;SDS011;66710;48.868;9.080;2023-05-07T05:25:49;8.68;;;5.70;;
77573;SDS011;66710;48.868;9.080;2023-05-07T05:28:14;9.60;;;5.35;;
77573;SDS011;66710;48.868;9.080;2023-05-07T05:30:40;7.93;;;5.53;;
77573;SDS011;66710;48.868;9.080;2023-05-07T05:33:05;8.77;;;5.30;;
77573;SDS011;66710;48.868;9.080;2023-05-07T05:35:30;7.50;;;5.25;;
77573;SDS011;66710;48.868;9.080;2023-05-07T05:37:56;7.30;;;5.28;;
77573;SDS011;66710;48.868;9.080;2023-05-07T05:40:22;9.15;;;5.25;;
77573;SDS011;66710;48.868;9.080;2023-05-07T05:42:47;10.73;;;5.82;;
77573;SDS011;66710;48.868;9.080;2023-05-07T05:45:12;7.13;;;5.47;;
77573;SDS011;66710;48.868;9.080;2023-05-07T05:47:38;7.53;;;5.18;;
77573;SDS011;66710;48.868;9.080;2023-05-07T05:50:05;7.75;;;5.55;;
77573;SDS011;66710;48.868;9.080;2023-05-07T05:52:31;7.00;;;4.68;;
77573;SDS011;66710;48.868;9.080;2023-05-07T05:54:56;7.72;;;4.93;;
77573;SDS011;66710;48.868;9.080;2023-05-07T05:57:21;7.57;;;5.00;;
77573;SDS011;66710;48.868;9.080;2023-05-07T05:59:47;7.10;;;4.90;;
77573;SDS011;66710;48.868;9.080;2023-05-07T06:02:12;7.05;;;4.90;;
77573;SDS011;66710;48.868;9.080;2023-05-07T06:04:38;7.10;;;4.82;;
77573;SDS011;66710;48.868;9.080;2023-05-07T06:07:03;6.93;;;4.80;;
77573;SDS011;66710;48.868;9.080;2023-05-07T06:09:28;6.20;;;4.78;;
77573;SDS011;66710;48.868;9.080;2023-05-07T06:11:54;7.35;;;5.10;;
77573;SDS011;66710;48.868;9.080;2023-05-07T06:14:19;7.47;;;5.00;;
77573;SDS011;66710;48.868;9.080;2023-05-07T06:16:44;7.97;;;4.90;;
77573;SDS011;66710;48.868;9.080;2023-05-07T06:19:10;7.95;;;4.97;;
77573;SDS011;66710;48.868;9.080;2023-05-07T06:21:35;6.82;;;4.90;;
77573;SDS011;66710;48.868;9.080;2023-05-07T06:24:01;7.05;;;5.22;;
77573;SDS011;66710;48.868;9.080;2023-05-07T06:26:26;7.82;;;5.20;;
77573;SDS011;66710;48.868;9.080;2023-05-07T06:28:51;6.63;;;5.10;;
77573;SDS011;66710;48.868;9.080;2023-05-07T06:31:17;7.50;;;5.65;;
77573;SDS011;66710;48.868;9.080;2023-05-07T06:33:45;8.65;;;4.90;;
77573;SDS011;66710;48.868;9.080;2023-05-07T06:36:11;7.53;;;5.05;;
77573;SDS011;66710;48.868;9.080;2023-05-07T06:38:36;6.55;;;4.32;;
77573;SDS011;66710;48.868;9.080;2023-05-07T06:41:02;7.40;;;4.50;;
77573;SDS011;66710;48.868;9.080;2023-05-07T06:43:27;5.75;;;4.32;;
77573;SDS011;66710;48.868;9.080;2023-05-07T06:45:52;7.13;;;4.47;;
77573;SDS011;66710;48.868;9.080;2023-05-07T06:48:18;7.00;;;4.80;;
77573;SDS011;66710;48.868;9.080;2023-05-07T06:50:43;5.10;;;3.92;;
77573;SDS011;66710;48.868;9.080;2023-05-07T06:53:08;6.78;;;4.55;;
77573;SDS011;66710;48.868;9.080;2023-05-07T06:55:34;7.22;;;3.90;;
77573;SDS011;66710;48.868;9.080;2023-05-07T06:57:59;5.78;;;3.70;;
77573;SDS011;66710;48.868;9.080;2023-05-07T07:00:26;6.68;;;3.67;;
77573;SDS011;66710;48.868;9.080;2023-05-07T07:02:53;5.57;;;3.17;;
77573;SDS011;66710;48.868;9.080;2023-05-07T07:05:18;6.28;;;3.05;;
77573;SDS011;66710;48.868;9.080;2023-05-07T07:07:44;6.82;;;3.45;;
77573;SDS011;66710;48.868;9.080;2023-05-07T07:10:21;4.90;;;3.58;;
77573;SDS011;66710;48.868;9.080;2023-05-07T07:12:49;4.75;;;3.10;;
77573;SDS011;66710;48.868;9.080;2023-05-07T07:15:14;5.90;;;3.67;;
77573;SDS011;66710;48.868;9.080;2023-05-07T07:17:40;6.13;;;3.70;;
77573;SDS011;66710;48.868;9.080;2023-05-07T07:20:06;5.97;;;3.70;;
77573;SDS011;66710;48.868;9.080;2023-05-07T07:22:32;4.70;;;3.50;;
77573;SDS011;66710;48.868;9.080;2023-05-07T07:24:57;5.65;;;3.70;;
77573;SDS011;66710;48.868;9.080;2023-05-07T07:27:23;4.60;;;3.50;;
77573;SDS011;66710;48.868;9.080;2023-05-07T07:29:48;5.25;;;3.55;;
77573;SDS011;66710;48.868;9.080;2023-05-07T07:32:14;6.85;;;3.35;;
77573;SDS011;66710;48.868;9.080;2023-05-07T07:34:39;6.05;;;3.38;;
77573;SDS011;66710;48.868;9.080;2023-05-07T07:37:05;4.88;;;3.35;;
77573;SDS011;66710;48.868;9.080;2023-05-07T07:39:34;5.50;;;3.50;;
77573;SDS011;66710;48.868;9.080;2023-05-07T07:42:00;6.57;;;3.65;;
77573;SDS011;66710;48.868;9.080;2023-05-07T07:44:27;5.25;;;3.50;;
77573;SDS011;66710;48.868;9.080;2023-05-07T07:46:53;5.07;;;3.60;;
77573;SDS011;66710;48.868;9.080;2023-05-07T07:49:18;5.70;;;3.92;;
77573;SDS011;66710;48.868;9.080;2023-05-07T07:51:43;5.45;;;3.80;;
77573;SDS011;66710;48.868;9.080;2023-05-07T07:54:09;6.85;;;3.60;;
77573;SDS011;66710;48.868;9.080;2023-05-07T07:56:34;6.10;;;3.90;;
77573;SDS011;66710;48.868;9.080;2023-05-07T07:59:00;5.03;;;3.80;;
77573;SDS011;66710;48.868;9.080;2023-05-07T08:01:25;6.22;;;3.72;;
77573;SDS011;66710;48.868;9.080;2023-05-07T08:03:51;6.80;;;3.85;;
77573;SDS011;66710;48.868;9.080;2023-05-07T08:06:16;5.13;;;3.45;;
77573;SDS011;66710;48.868;9.080;2023-05-07T08:08:41;5.15;;;3.72;;
77573;SDS011;66710;48.868;9.080;2023-05-07T08:11:07;7.28;;;4.43;;
77573;SDS011;66710;48.868;9.080;2023-05-07T08:13:33;5.22;;;3.58;;
77573;SDS011;66710;48.868;9.080;2023-05-07T08:15:58;7.13;;;4.03;;
77573;SDS011;66710;48.868;9.080;2023-05-07T08:18:24;4.35;;;3.40;;
77573;SDS011;66710;48.868;9.080;2023-05-07T08:20:51;6.55;;;3.95;;
77573;SDS011;66710;48.868;9.080;2023-05-07T08:23:16;5.43;;;3.83;;
77573;SDS011;66710;48.868;9.080;2023-05-07T08:25:41;5.32;;;3.83;;
77573;SDS011;66710;48.868;9.080;2023-05-07T08:28:08;6.35;;;3.95;;
77573;SDS011;66710;48.868;9.080;2023-05-07T08:30:33;6.60;;;4.10;;
77573;SDS011;66710;48.868;9.080;2023-05-07T08:32:59;4.97;;;3.78;;
77573;SDS011;66710;48.868;9.080;2023-05-07T08:35:25;6.40;;;3.90;;
77573;SDS011;66710;48.868;9.080;2023-05-07T08:37:51;5.70;;;4.10;;
77573;SDS011;66710;48.868;9.080;2023-05-07T08:40:16;5.40;;;3.92;;
77573;SDS011;66710;48.868;9.080;2023-05-07T08:42:42;6.28;;;3.80;;
77573;SDS011;66710;48.868;9.080;2023-05-07T08:45:09;5.03;;;3.70;;
77573;SDS011;66710;48.868;9.080;2023-05-07T08:47:40;5.80;;;3.92;;
77573;SDS011;66710;48.868;9.080;2023-05-07T08:50:09;5.85;;;4.30;;
77573;SDS011;66710;48.868;9.080;2023-05-07T08:52:35;6.68;;;3.83;;
77573;SDS011;66710;48.868;9.080;2023-05-07T08:55:02;5.18;;;3.90;;
77573;SDS011;66710;48.868;9.080;2023-05-07T08:57:28;6.20;;;3.90;;
77573;SDS011;66710;48.868;9.080;2023-05-07T08:59:53;6.00;;;4.03;;
77573;SDS011;66710;48.868;9.080;2023-05-07T09:02:19;5.60;;;3.70;;
77573;SDS011;66710;48.868;9.080;2023-05-07T09:04:44;5.70;;;3.55;;
77573;SDS011;66710;48.868;9.080;2023-05-07T09:07:09;6.78;;;3.70;;
77573;SDS011;66710;48.868;9.080;2023-05-07T09:09:35;5.82;;;3.80;;
77573;SDS011;66710;48.868;9.080;2023-05-07T09:12:00;7.13;;;3.78;;
77573;SDS011;66710;48.868;9.080;2023-05-07T09:14:27;5.15;;;3.65;;
77573;SDS011;66710;48.868;9.080;2023-05-07T09:16:52;5.45;;;3.92;;
77573;SDS011;66710;48.868;9.080;2023-05-07T09:19:24;6.78;;;3.88;;
77573;SDS011;66710;48.868;9.080;2023-05-07T09:22:00;5.85;;;3.80;;
77573;SDS011;66710;48.868;9.080;2023-05-07T09:24:27;6.10;;;3.80;;
77573;SDS011;66710;48.868;9.080;2023-05-07T09:26:57;4.65;;;3.50;;
77573;SDS011;66710;48.868;9.080;2023-05-07T09:29:22;4.75;;;3.50;;
77573;SDS011;66710;48.868;9.080;2023-05-07T09:31:48;5.97;;;4.25;;
77573;SDS011;66710;48.868;9.080;2023-05-07T09:34:13;5.05;;;3.58;;
77573;SDS011;66710;48.868;9.080;2023-05-07T09:36:38;6.07;;;3.70;;
77573;SDS011;66710;48.868;9.080;2023-05-07T09:39:04;5.60;;;3.38;;
77573;SDS011;66710;48.868;9.080;2023-05-07T09:41:30;5.15;;;3.90;;
77573;SDS011;66710;48.868;9.080;2023-05-07T09:43:56;5.85;;;3.90;;
77573;SDS011;66710;48.868;9.080;2023-05-07T09:46:29;5.28;;;3.80;;
77573;SDS011;66710;48.868;9.080;2023-05-07T09:48:57;4.80;;;4.10;;
77573;SDS011;66710;48.868;9.080;2023-05-07T09:51:24;5.63;;;3.78;;
77573;SDS011;66710;48.868;9.080;2023-05-07T09:53:54;5.30;;;3.40;;
77573;SDS011;66710;48.868;9.080;2023-05-07T09:56:21;6.07;;;3.80;;
77573;SDS011;66710;48.868;9.080;2023-05-07T09:58:47;4.78;;;3.70;;
77573;SDS011;66710;48.868;9.080;2023-05-07T10:01:15;6.78;;;4.53;;
77573;SDS011;66710;48.868;9.080;2023-05-07T10:03:42;4.80;;;3.85;;
77573;SDS011;66710;48.868;9.080;2023-05-07T10:06:09;5.07;;;3.50;;
77573;SDS011;66710;48.868;9.080;2023-05-07T10:08:35;5.68;;;3.80;;
77573;SDS011;66710;48.868;9.080;2023-05-07T10:11:02;4.85;;;3.55;;
77573;SDS011;66710;48.868;9.080;2023-05-07T10:13:29;4.50;;;3.30;;
77573;SDS011;66710;48.868;9.080;2023-05-07T10:15:55;6.22;;;3.50;;
77573;SDS011;66710;48.868;9.080;2023-05-07T10:18:21;4.78;;;3.15;;
77573;SDS011;66710;48.868;9.080;2023-05-07T10:20:54;5.72;;;3.40;;
77573;SDS011;66710;48.868;9.080;2023-05-07T10:23:26;4.60;;;2.95;;
77573;SDS011;66710;48.868;9.080;2023-05-07T10:25:52;5.07;;;2.88;;
77573;SDS011;66710;48.868;9.080;2023-05-07T10:28:19;3.97;;;2.80;;
77573;SDS011;66710;48.868;9.080;2023-05-07T10:33:23;5.53;;;3.10;;
77573;SDS011;66710;48.868;9.080;2023-05-07T10:35:51;4.22;;;3.35;;
77573;SDS011;66710;48.868;9.080;2023-05-07T10:38:23;4.43;;;2.70;;
77573;SDS011;66710;48.868;9.080;2023-05-07T10:40:50;4.95;;;3.28;;
77573;SDS011;66710;48.868;9.080;2023-05-07T10:43:16;4.70;;;3.40;;
77573;SDS011;66710;48.868;9.080;2023-05-07T10:45:41;5.53;;;3.70;;
77573;SDS011;66710;48.868;9.080;2023-05-07T10:48:11;6.55;;;3.33;;
77573;SDS011;66710;48.868;9.080;2023-05-07T10:50:38;5.03;;;3.20;;
77573;SDS011;66710;48.868;9.080;2023-05-07T10:55:48;4.68;;;3.35;;
77573;SDS011;66710;48.868;9.080;2023-05-07T10:58:37;4.40;;;3.42;;
77573;SDS011;66710;48.868;9.080;2023-05-07T11:01:02;5.00;;;3.38;;
77573;SDS011;66710;48.868;9.080;2023-05-07T11:03:28;4.88;;;3.50;;
77573;SDS011;66710;48.868;9.080;2023-05-07T11:06:08;5.18;;;3.42;;
77573;SDS011;66710;48.868;9.080;2023-05-07T11:11:17;5.85;;;3.50;;
77573;SDS011;66710;48.868;9.080;2023-05-07T11:18:47;4.28;;;3.10;;
77573;SDS011;66710;48.868;9.080;2023-05-07T11:21:31;7.43;;;3.13;;
77573;SDS011;66710;48.868;9.080;2023-05-07T11:23:58;5.03;;;3.30;;
77573;SDS011;66710;48.868;9.080;2023-05-07T11:26:24;4.68;;;3.10;;
77573;SDS011;66710;48.868;9.080;2023-05-07T11:28:50;7.28;;;4.10;;
77573;SDS011;66710;48.868;9.080;2023-05-07T11:31:20;5.03;;;3.70;;
77573;SDS011;66710;48.868;9.080;2023-05-07T11:33:46;5.95;;;3.30;;
77573;SDS011;66710;48.868;9.080;2023-05-07T11:36:12;4.75;;;3.35;;
77573;SDS011;66710;48.868;9.080;2023-05-07T11:38:37;5.30;;;3.45;;
77573;SDS011;66710;48.868;9.080;2023-05-07T11:41:03;4.63;;;3.30;;
77573;SDS011;66710;48.868;9.080;2023-05-07T11:43:32;6.45;;;3.90;;
77573;SDS011;66710;48.868;9.080;2023-05-07T11:46:08;4.65;;;3.30;;
77573;SDS011;66710;48.868;9.080;2023-05-07T11:48:35;6.70;;;3.38;;
77573;SDS011;66710;48.868;9.080;2023-05-07T11:51:04;5.82;;;3.75;;
77573;SDS011;66710;48.868;9.080;2023-05-07T11:53:37;4.43;;;3.10;;
77573;SDS011;66710;48.868;9.080;2023-05-07T11:56:10;5.07;;;3.25;;
77573;SDS011;66710;48.868;9.080;2023-05-07T11:58:37;5.05;;;3.10;;
77573;SDS011;66710;48.868;9.080;2023-05-07T12:01:03;4.05;;;2.92;;
77573;SDS011;66710;48.868;9.080;2023-05-07T12:03:28;5.20;;;3.10;;
77573;SDS011;66710;48.868;9.080;2023-05-07T12:05:54;4.15;;;3.00;;
77573;SDS011;66710;48.868;9.080;2023-05-07T12:08:20;14.93;;;8.00;;
77573;SDS011;66710;48.868;9.080;2023-05-07T12:10:47;7.80;;;4.00;;
77573;SDS011;66710;48.868;9.080;2023-05-07T12:13:18;4.13;;;3.13;;
77573;SDS011;66710;48.868;9.080;2023-05-07T12:15:44;4.68;;;3.10;;
77573;SDS011;66710;48.868;9.080;2023-05-07T12:18:10;4.90;;;3.10;;
77573;SDS011;66710;48.868;9.080;2023-05-07T12:20:37;3.83;;;2.83;;
77573;SDS011;66710;48.868;9.080;2023-05-07T12:23:03;3.90;;;2.97;;
77573;SDS011;66710;48.868;9.080;2023-05-07T12:25:30;4.47;;;2.97;;
77573;SDS011;66710;48.868;9.080;2023-05-07T12:27:56;4.90;;;2.70;;
77573;SDS011;66710;48.868;9.080;2023-05-07T12:30:23;4.53;;;3.30;;
77573;SDS011;66710;48.868;9.080;2023-05-07T12:32:52;4.70;;;3.22;;
77573;SDS011;66710;48.868;9.080;2023-05-07T12:35:25;4.03;;;2.90;;
77573;SDS011;66710;48.868;9.080;2023-05-07T12:37:55;4.07;;;2.67;;
77573;SDS011;66710;48.868;9.080;2023-05-07T12:40:23;5.00;;;2.70;;
77573;SDS011;66710;48.868;9.080;2023-05-07T12:42:49;3.08;;;2.38;;
77573;SDS011;66710;48.868;9.080;2023-05-07T12:45:19;3.78;;;1.95;;
77573;SDS011;66710;48.868;9.080;2023-05-07T12:47:45;4.30;;;2.28;;
77573;SDS011;66710;48.868;9.080;2023-05-07T12:50:11;3.25;;;2.17;;
77573;SDS011;66710;48.868;9.080;2023-05-07T12:52:40;4.28;;;2.53;;
77573;SDS011;66710;48.868;9.080;2023-05-07T12:55:09;3.88;;;2.20;;
77573;SDS011;66710;48.868;9.080;2023-05-07T12:57:37;3.42;;;2.30;;
77573;SDS011;66710;48.868;9.080;2023-05-07T13:00:04;6.72;;;3.00;;
77573;SDS011;66710;48.868;9.080;2023-05-07T13:02:33;5.38;;;3.15;;
77573;SDS011;66710;48.868;9.080;2023-05-07T13:05:02;6.73;;;3.27;;
77573;SDS011;66710;48.868;9.080;2023-05-07T13:07:27;5.13;;;2.80;;
77573;SDS011;66710;48.868;9.080;2023-05-07T13:09:53;5.07;;;2.88;;
77573;SDS011;66710;48.868;9.080;2023-05-07T13:12:18;3.60;;;2.30;;
77573;SDS011;66710;48.868;9.080;2023-05-07T13:14:43;3.17;;;2.15;;
77573;SDS011;66710;48.868;9.080;2023-05-07T13:17:09;2.90;;;2.00;;
77573;SDS011;66710;48.868;9.080;2023-05-07T13:19:34;3.33;;;1.80;;
77573;SDS011;66710;48.868;9.080;2023-05-07T13:22:02;3.53;;;2.13;;
77573;SDS011;66710;48.868;9.080;2023-05-07T13:24:27;5.03;;;2.47;;
77573;SDS011;66710;48.868;9.080;2023-05-07T13:26:53;4.18;;;1.98;;
77573;SDS011;66710;48.868;9.080;2023-05-07T13:29:18;5.03;;;1.90;;
77573;SDS011;66710;48.868;9.080;2023-05-07T13:31:44;3.25;;;1.80;;
77573;SDS011;66710;48.868;9.080;2023-05-07T13:34:09;4.00;;;1.80;;
77573;SDS011;66710;48.868;9.080;2023-05-07T13:36:35;3.65;;;1.90;;
77573;SDS011;66710;48.868;9.080;2023-05-07T13:39:02;4.38;;;2.03;;
77573;SDS011;66710;48.868;9.080;2023-05-07T13:41:28;4.05;;;2.08;;
77573;SDS011;66710;48.868;9.080;2023-05-07T13:43:54;4.32;;;2.20;;
77573;SDS011;66710;48.868;9.080;2023-05-07T13:46:20;5.28;;;2.20;;
77573;SDS011;66710;48.868;9.080;2023-05-07T13:48:46;3.60;;;1.95;;
77573;SDS011;66710;48.868;9.080;2023-05-07T13:51:12;3.45;;;1.77;;
77573;SDS011;66710;48.868;9.080;2023-05-07T13:53:38;3.25;;;1.75;;
77573;SDS011;66710;48.868;9.080;2023-05-07T13:56:03;2.22;;;1.45;;
77573;SDS011;66710;48.868;9.080;2023-05-07T13:58:29;2.78;;;1.40;;
77573;SDS011;66710;48.868;9.080;2023-05-07T14:00:55;3.33;;;1.67;;
77573;SDS011;66710;48.868;9.080;2023-05-07T14:03:20;3.13;;;1.77;;
77573;SDS011;66710;48.868;9.080;2023-05-07T14:05:46;4.72;;;1.90;;
77573;SDS011;66710;48.868;9.080;2023-05-07T14:08:11;2.47;;;1.60;;
77573;SDS011;66710;48.868;9.080;2023-05-07T14:10:38;2.90;;;1.80;;
77573;SDS011;66710;48.868;9.080;2023-05-07T14:13:04;4.47;;;1.60;;
77573;SDS011;66710;48.868;9.080;2023-05-07T14:15:29;2.65;;;1.65;;
77573;SDS011;66710;48.868;9.080;2023-05-07T14:17:55;2.95;;;1.60;;
77573;SDS011;66710;48.868;9.080;2023-05-07T14:20:22;4.60;;;2.42;;
77573;SDS011;66710;48.868;9.080;2023-05-07T14:22:47;3.50;;;2.10;;
77573;SDS011;66710;48.868;9.080;2023-05-07T14:25:13;4.40;;;2.50;;
77573;SDS011;66710;48.868;9.080;2023-05-07T14:27:38;5.97;;;2.40;;
77573;SDS011;66710;48.868;9.080;2023-05-07T14:30:04;3.58;;;2.50;;
77573;SDS011;66710;48.868;9.080;2023-05-07T14:32:30;5.10;;;2.30;;
77573;SDS011;66710;48.868;9.080;2023-05-07T14:34:55;5.45;;;2.95;;
77573;SDS011;66710;48.868;9.080;2023-05-07T14:37:20;3.65;;;2.40;;
77573;SDS011;66710;48.868;9.080;2023-05-07T14:39:46;4.95;;;3.05;;
77573;SDS011;66710;48.868;9.080;2023-05-07T14:42:11;4.55;;;2.67;;
77573;SDS011;66710;48.868;9.080;2023-05-07T14:44:37;4.45;;;2.92;;
77573;SDS011;66710;48.868;9.080;2023-05-07T14:47:05;4.50;;;2.90;;
77573;SDS011;66710;48.868;9.080;2023-05-07T14:49:31;5.18;;;3.30;;
77573;SDS011;66710;48.868;9.080;2023-05-07T14:51:57;4.18;;;2.70;;
77573;SDS011;66710;48.868;9.080;2023-05-07T14:54:24;5.53;;;2.90;;